Orbest A320 at Kristiansand on Jan 27th 2013, overran runway on landing

Last Update: January 29, 2013 / 14:57:52 GMT/Zulu time

Bookmark this article
Incident Facts

Date of incident
Jan 27, 2013

Classification
Incident

Flight number
IP-6213

Aircraft Registration
EC-KZG

Aircraft Type
Airbus A320

ICAO Type Designator
A320

An Orbest Orizonia Airlines Airbus A320-200, registration EC-KZG performing flight IP-6213 from Tenerife Sur Reina Sofia,CI (Spain) to Kristiansand (Norway) with 177 people on board, landed on Kristiansand's runway 22 (length 2035 meters/6680 feet) at 14:05L (13:05Z) but overran the end of the runway and came to a stop on the paved surface of the runway end safety area. No injuries and no damage occurred.

The aircraft needed to be towed to the apron and was able to depart for the return flight about 3.5 hours after landing.

Metars:
ENCN 271420Z 07005KT 0900 R04/P2000N R22/1600N SNRA VV005 00/M00 Q0987
ENCN 271350Z 12005KT 100V160 1000 R04/P2000D R22/1300VP2000D SNRA VV005 00/M00 Q0988
ENCN 271320Z 10005KT 050V140 1500 -SNRA BR VV006 01/M00 Q0988
ENCN 271250Z 11006KT 070V150 3500 -SNRA BR VV006 01/M00 Q0989
ENCN 271220Z 10008KT 2600 -SNRA BR VV006 01/M00 Q0990
ENCN 271150Z 10008KT 1800 -SNRA BR VV006 00/M00 Q0991
ENCN 271120Z 10009KT 1200 -SNRA BR VV006 01/M00 Q0991
ENCN 271050Z 10010KT 3000 -SNRA BR VV006 01/M00 Q0992
ENCN 271020Z 10011KT 5000 -RASN BR VV006 01/00 Q0992
Incident Facts

Date of incident
Jan 27, 2013

Classification
Incident

Flight number
IP-6213

Aircraft Registration
EC-KZG

Aircraft Type
Airbus A320

ICAO Type Designator
A320

This article is published under license from Avherald.com. © of text by Avherald.com.
Article source

You can read 4 more free articles without a subscription.

Subscribe now and continue reading without any limits!

Are you a subscriber?
Login
Subscribe

Read unlimited articles and receive our daily update briefing. Gain better insights into what is happening in commercial aviation safety.

Free newsletter

Want to know more and stay ahead? Get our free weekly newsletter and join 4941 existing subscribers.

By subscribing, you accept our terms and conditions and confirm that you've read our privacy policy.

Send tip

Support AeroInside by sending a small tip amount.

Related articles

Newest articles

Subscribe today

Are you researching aviation incidents? Get access to AeroInside Insights, unlimited read access and receive the daily newsletter.

Pick your plan and subscribe

Partner

Blockaviation logo

A new way to document and demonstrate airworthiness compliance and aircraft value. Find out more.

Virtual Speech logo

ELITE Simulation Solutions is a leading global provider of Flight Simulation Training Devices, IFR training software as well as flight controls and related services. Find out more.

Get updates

Never miss an article from AeroInside. Subscribe to our free weekly newsletter and join 4941 existing subscribers.

By subscribing, you accept our terms and conditions and that you've read our privacy policy.

AeroInside Blog
Popular aircraft
Airbus A320
Boeing 737-800
Boeing 737-800 MAX
Popular airlines
American Airlines
United
Delta
Air Canada
Lufthansa
British Airways